SHMÚ vydal meteorologické výstrahy na Prízemný mrázVietor na horách Zobraziť výstrahy

METAR

Letisková meteorologická správa METAR

Meteorologické informácie z ďalších profesionálnych meteorologických staníc SHMÚ zobrazené v tvare zodpovedajúcom pravidlám kódovania správ METAR sú uvedené v položke „METSYN


Správy METAR z vojenských meteorologických staníc (MIL)
SHMÚ nezodpovedá za ich obsah.

METAR

Meteorologické správy z meteorologických staníc, ktoré letecká meteorologická služba prevádzkuje na letiskách s riadenou leteckou prevádzkou - Bratislava, Košice, Poprad, Piešťany a Žilina. Meteorologické informácie sú uvedené v tvare kódu METAR. Správy METAR sú vydávané v pravidelných 1/2 hodinových intervaloch. Na stránke sú zobrazované aj informácie z vojenských meteorologických staníc Malacky Prešov a Sliač v 1 hodinovom kroku (SHMÚ nezodpovedá za ich obsah).

Príklad:
LZIB 142300Z 36015KT 0700 R31/1400N R22/1500N SN   DRSN BKN004 OVC006 M05/M06 Q1000 R13/8/0232=


Informácie o správe METAR